Time;durP1;ratioP1;P1;durP2;ratioP2;P2;SDS_P1;SDS_P2;PMS_P1;PMS_P2;Temp;Humidity;BMP_temperature;BMP_pressure;BME280_temperature;BME280_humidity;BME280_pressure;Samples;Min_cycle;Max_cycle;Signal;HPM_P1;HPM_P2
2023/07/26 00:02:04;;;;;;;;;;;;;;;13.92;86.75;101176.72;5063633;28;20530;-56
2023/07/26 00:04:29;;;;;;;;;;;;;;;13.94;86.25;101176.72;5064697;28;19917;-56
2023/07/26 00:06:55;;;;;;;;;;;;;;;13.93;86.57;101180.16;5066490;27;19969;-56
2023/07/26 00:09:20;;;;;;;;;;;;;;;13.94;86.57;101180.19;5068378;28;19917;-56
2023/07/26 00:11:45;;;;;;;;;;;;;;;13.92;86.07;101181.88;5063261;27;19925;-55
2023/07/26 00:14:11;;;;;;;;;;;;;;;13.94;85.94;101181.91;5065097;28;20216;-57
2023/07/26 00:16:36;;;;;;;;;;;;;;;13.95;85.57;101181.06;5062221;28;19921;-55
2023/07/26 00:19:01;;;;;;;;;;;;;;;13.93;86.72;101182.75;5064458;28;19967;-57
2023/07/26 00:21:27;;;;;;;;;;;;;;;13.89;86.56;101176.66;5055480;27;19928;-56
2023/07/26 00:23:53;;;;;;;;;;;;;;;13.82;86.60;101169.59;5064031;28;19930;-57
2023/07/26 00:26:18;;;;;;;;;;;;;;;13.77;85.15;101167.78;5067140;27;19919;-56
2023/07/26 00:28:43;;;;;;;;;;;;;;;13.71;88.07;101160.81;5065824;28;19981;-57
2023/07/26 00:31:08;;;;;;;;;;;;;;;13.66;87.87;101165.00;5050670;27;19921;-56
2023/07/26 00:33:34;;;;;;;;;;;;;;;13.61;87.65;101164.03;5064161;28;19991;-57
2023/07/26 00:35:59;;;;;;;;;;;;;;;13.55;87.12;101164.78;5060931;28;19921;-57
2023/07/26 00:38:24;;;;;;;;;;;;;;;13.52;87.11;101166.41;5064224;28;20020;-55
2023/07/26 00:40:49;;;;;;;;;;;;;;;13.46;86.89;101164.56;5066019;28;19939;-56
2023/07/26 00:43:15;;;;;;;;;;;;;;;13.42;87.94;101157.63;5066517;28;19921;-56
2023/07/26 00:45:41;;;;;;;;;;;;;;;13.36;86.73;101163.50;5065712;28;19920;-56
2023/07/26 00:48:07;;;;;;;;;;;;;;;13.31;87.59;101161.66;5061212;28;19917;-55
2023/07/26 00:50:32;;;;;;;;;;;;;;;13.25;87.99;101162.41;5064666;28;19916;-57
2023/07/26 00:52:58;;;;;;;;;;;;;;;13.23;88.10;101161.50;5064251;28;19916;-55
2023/07/26 00:55:23;;;;;;;;;;;;;;;13.22;88.21;101164.03;5062217;28;19931;-57
2023/07/26 00:57:49;;;;;;;;;;;;;;;13.21;88.73;101165.75;5063738;28;19917;-56
2023/07/26 01:00:15;;;;;;;;;;;;;;;13.22;89.22;101158.88;5058805;28;20402;-56
2023/07/26 01:02:40;;;;;;;;;;;;;;;13.19;89.72;101164.81;5057914;28;19924;-57
2023/07/26 01:05:06;;;;;;;;;;;;;;;13.18;89.29;101162.22;5062167;28;19923;-56
2023/07/26 01:07:46;;;;;;;;;;;;;;;13.15;89.95;101157.84;5061552;28;19925;-56
2023/07/26 01:10:30;;;;;;;;;;;;;;;13.13;90.06;101164.69;5041204;28;19917;-55
2023/07/26 01:13:11;;;;;;;;;;;;;;;13.10;89.68;101169.75;5065483;28;20015;-56
2023/07/26 01:15:37;;;;;;;;;;;;;;;13.09;89.89;101162.88;5062387;28;20362;-56
2023/07/26 01:18:06;;;;;;;;;;;;;;;13.10;90.14;101162.03;5063978;28;20366;-56
2023/07/26 01:20:31;;;;;;;;;;;;;;;13.11;89.97;101161.22;5057574;28;20642;-57
2023/07/26 01:22:57;;;;;;;;;;;;;;;13.11;90.09;101164.66;5056775;28;19927;-56
2023/07/26 01:25:22;;;;;;;;;;;;;;;13.15;90.63;101168.16;5060566;27;19959;-56
2023/07/26 01:27:47;;;;;;;;;;;;;;;13.18;90.45;101165.66;5063684;28;19932;-56
2023/07/26 01:30:13;;;;;;;;;;;;;;;13.20;90.50;101166.56;5062013;27;19920;-56
2023/07/26 01:32:38;;;;;;;;;;;;;;;13.23;90.20;101165.81;5064249;28;19927;-57
2023/07/26 01:35:04;;;;;;;;;;;;;;;13.28;90.04;101171.91;5057859;28;19923;-56
2023/07/26 01:37:30;;;;;;;;;;;;;;;13.29;90.17;101165.94;5055272;28;20332;-57
2023/07/26 01:39:55;;;;;;;;;;;;;;;13.33;90.28;101172.91;5051382;28;19973;-56
2023/07/26 01:42:21;;;;;;;;;;;;;;;13.34;90.07;101167.75;5054395;28;19921;-57
2023/07/26 01:44:46;;;;;;;;;;;;;;;13.36;89.43;101162.66;5056966;28;20277;-56
2023/07/26 01:47:11;;;;;;;;;;;;;;;13.34;89.64;101162.59;5065293;28;20366;-56
2023/07/26 01:49:36;;;;;;;;;;;;;;;13.34;89.94;101165.16;5065982;27;19920;-56
2023/07/26 01:52:02;;;;;;;;;;;;;;;13.37;89.60;101172.13;5058502;27;19984;-56
2023/07/26 01:54:27;;;;;;;;;;;;;;;13.36;89.45;101170.41;5054058;28;19928;-57
2023/07/26 01:56:52;;;;;;;;;;;;;;;13.33;88.86;101166.00;5057118;28;19972;-56
2023/07/26 01:59:18;;;;;;;;;;;;;;;13.34;90.29;101165.16;5051503;28;19920;-56
2023/07/26 02:01:43;;;;;;;;;;;;;;;13.31;90.23;101167.72;5052815;28;19969;-56
2023/07/26 02:04:09;;;;;;;;;;;;;;;13.31;90.15;101165.13;5052815;28;19928;-57
2023/07/26 02:06:34;;;;;;;;;;;;;;;13.29;90.67;101169.41;5054892;28;19921;-57
2023/07/26 02:08:59;;;;;;;;;;;;;;;13.24;90.80;101165.84;5053187;28;19946;-56
2023/07/26 02:11:25;;;;;;;;;;;;;;;13.18;90.15;101163.09;5051046;28;19925;-55
2023/07/26 02:13:50;;;;;;;;;;;;;;;13.14;89.80;101172.47;5052178;28;19980;-56
2023/07/26 02:16:15;;;;;;;;;;;;;;;13.11;90.92;101166.38;5053107;28;20386;-57
2023/07/26 02:18:40;;;;;;;;;;;;;;;13.08;91.28;101162.00;5054103;28;19945;-55
2023/07/26 02:21:05;;;;;;;;;;;;;;;13.05;91.51;101158.50;5050477;28;19929;-56
2023/07/26 02:23:31;;;;;;;;;;;;;;;13.00;91.34;101160.97;5054352;28;19971;-56
2023/07/26 02:25:56;;;;;;;;;;;;;;;12.96;92.32;101160.84;5051523;28;20374;-56
2023/07/26 02:28:21;;;;;;;;;;;;;;;12.94;92.35;101163.41;5056209;28;19925;-57
2023/07/26 02:30:46;;;;;;;;;;;;;;;12.91;92.51;101158.16;5055782;28;19964;-57
2023/07/26 02:33:12;;;;;;;;;;;;;;;12.90;93.43;101148.66;5052661;27;19969;-55
2023/07/26 02:35:37;;;;;;;;;;;;;;;12.90;92.83;101153.81;5052888;28;19928;-56
2023/07/26 02:38:02;;;;;;;;;;;;;;;12.89;92.97;101147.78;5059379;28;20401;-57
2023/07/26 02:40:28;;;;;;;;;;;;;;;12.87;93.67;101151.19;5055309;28;19925;-56
2023/07/26 02:42:53;;;;;;;;;;;;;;;12.82;93.48;101147.63;5055690;28;19943;-57
2023/07/26 02:45:19;;;;;;;;;;;;;;;12.80;93.34;101150.19;5058974;28;19920;-56
2023/07/26 02:47:44;;;;;;;;;;;;;;;12.77;93.47;101151.81;5037289;28;19928;-56
2023/07/26 02:50:09;;;;;;;;;;;;;;;12.74;93.85;101149.13;5060041;28;19917;-56
2023/07/26 02:52:34;;;;;;;;;;;;;;;12.68;94.09;101149.00;5063399;28;19984;-56
2023/07/26 02:55:00;;;;;;;;;;;;;;;12.62;93.94;101160.06;5065622;28;20015;-57
2023/07/26 02:57:25;;;;;;;;;;;;;;;12.57;94.26;101154.78;5064442;28;19927;-56
2023/07/26 02:59:50;;;;;;;;;;;;;;;12.56;94.95;101155.63;5066025;28;19923;-56
2023/07/26 03:02:16;;;;;;;;;;;;;;;12.56;94.95;101165.06;5064292;27;20011;-56
2023/07/26 03:04:41;;;;;;;;;;;;;;;12.55;95.83;101171.03;5067208;28;19977;-56
2023/07/26 03:07:06;;;;;;;;;;;;;;;12.56;95.46;101168.53;5061438;28;19943;-56
2023/07/26 03:09:31;;;;;;;;;;;;;;;12.63;95.51;101171.25;5068589;28;19924;-56
2023/07/26 03:11:57;;;;;;;;;;;;;;;12.66;95.46;101173.88;5064642;27;19938;-56
2023/07/26 03:14:22;;;;;;;;;;;;;;;12.67;95.52;101173.06;5066592;28;19921;-55
2023/07/26 03:16:47;;;;;;;;;;;;;;;12.68;97.04;101162.78;5066143;28;19949;-55
2023/07/26 03:19:12;;;;;;;;;;;;;;;12.68;95.46;101155.06;5062488;27;19968;-58
2023/07/26 03:21:38;;;;;;;;;;;;;;;12.67;96.43;101155.00;5062475;28;19921;-56
2023/07/26 03:24:03;;;;;;;;;;;;;;;12.64;96.95;101163.53;5065798;28;19921;-56
2023/07/26 03:26:28;;;;;;;;;;;;;;;12.64;96.80;101167.84;5064330;28;20093;-58
2023/07/26 03:28:54;;;;;;;;;;;;;;;12.62;95.82;101170.38;5060006;28;19928;-57
2023/07/26 03:31:19;;;;;;;;;;;;;;;12.59;95.89;101168.59;5056221;28;19920;-57
2023/07/26 03:33:44;;;;;;;;;;;;;;;12.57;98.33;101165.09;5059215;28;19929;-55
2023/07/26 03:36:09;;;;;;;;;;;;;;;12.54;97.84;101169.31;5057489;28;20026;-57
2023/07/26 03:38:35;;;;;;;;;;;;;;;12.49;97.31;101171.75;5059441;28;20277;-56
2023/07/26 03:41:00;;;;;;;;;;;;;;;12.43;97.43;101165.56;5056028;28;19964;-57
2023/07/26 03:43:25;;;;;;;;;;;;;;;12.39;97.49;101174.97;5066491;28;20038;-56
2023/07/26 03:45:50;;;;;;;;;;;;;;;12.33;97.54;101172.22;5069188;28;19939;-56
2023/07/26 03:48:16;;;;;;;;;;;;;;;12.28;99.80;101169.53;5064248;28;19927;-56
2023/07/26 03:50:41;;;;;;;;;;;;;;;12.24;99.09;101182.28;5046733;28;19944;-56
2023/07/26 03:53:06;;;;;;;;;;;;;;;12.16;99.90;101176.94;5060641;28;19920;-54
2023/07/26 03:55:31;;;;;;;;;;;;;;;12.12;100.00;101175.09;5058422;28;19967;-55
2023/07/26 03:57:57;;;;;;;;;;;;;;;12.09;100.00;101180.19;5065413;27;20544;-56
2023/07/26 04:00:22;;;;;;;;;;;;;;;12.03;100.00;101180.03;5066261;28;19926;-56
2023/07/26 04:02:47;;;;;;;;;;;;;;;11.97;100.00;101177.28;5063389;28;19997;-57
2023/07/26 04:05:13;;;;;;;;;;;;;;;11.93;100.00;101176.31;5066212;28;19974;-57
2023/07/26 04:07:38;;;;;;;;;;;;;;;11.91;100.00;101172.81;5067073;28;19931;-56
2023/07/26 04:10:04;;;;;;;;;;;;;;;11.88;100.00;101169.28;5065980;28;20441;-56
2023/07/26 04:12:29;;;;;;;;;;;;;;;11.86;100.00;101169.25;5066375;28;19932;-57
2023/07/26 04:14:55;;;;;;;;;;;;;;;11.85;100.00;101166.63;5065477;28;19921;-57
2023/07/26 04:17:20;;;;;;;;;;;;;;;11.81;100.00;101169.09;5062954;28;19921;-56
2023/07/26 04:19:45;;;;;;;;;;;;;;;11.80;100.00;101169.03;5062367;28;19924;-56
2023/07/26 04:22:12;;;;;;;;;;;;;;;11.78;100.00;101171.56;5056369;28;20243;-56
2023/07/26 04:24:44;;;;;;;;;;;;;;;11.75;100.00;101168.91;5061993;28;19981;-55
2023/07/26 04:27:10;;;;;;;;;;;;;;;11.77;100.00;101171.53;5059589;28;20393;-57
2023/07/26 04:29:35;;;;;;;;;;;;;;;11.77;100.00;101175.00;5060204;28;19921;-56
2023/07/26 04:32:00;;;;;;;;;;;;;;;11.80;100.00;101175.06;5055169;28;19929;-57
2023/07/26 04:34:26;;;;;;;;;;;;;;;11.82;100.00;101168.28;5057854;28;19917;-56
2023/07/26 04:36:51;;;;;;;;;;;;;;;11.84;100.00;101173.50;5056804;28;19933;-56
2023/07/26 04:39:16;;;;;;;;;;;;;;;11.88;100.00;101177.00;5058787;28;19984;-57
2023/07/26 04:41:41;;;;;;;;;;;;;;;11.89;100.00;101174.50;5061294;27;20363;-56
2023/07/26 04:44:07;;;;;;;;;;;;;;;11.91;100.00;101174.53;5057884;28;19929;-57
2023/07/26 04:46:32;;;;;;;;;;;;;;;12.10;100.00;101178.47;5061638;28;19924;-56
2023/07/26 04:48:57;;;;;;;;;;;;;;;12.57;100.00;101177.13;5057065;28;19963;-56
2023/07/26 04:51:23;;;;;;;;;;;;;;;12.78;99.90;101180.22;5043437;28;20333;-56
2023/07/26 04:53:49;;;;;;;;;;;;;;;12.79;99.41;101175.94;5058263;28;19916;-56
2023/07/26 04:56:15;;;;;;;;;;;;;;;12.72;100.00;101177.50;5058346;27;20454;-57
2023/07/26 04:58:41;;;;;;;;;;;;;;;12.65;100.00;101175.59;5060176;28;20382;-56
2023/07/26 05:01:06;;;;;;;;;;;;;;;12.58;100.00;101176.28;5057535;28;19965;-57
2023/07/26 05:03:31;;;;;;;;;;;;;;;12.50;100.00;101170.94;5062045;28;19924;-56
2023/07/26 05:05:57;;;;;;;;;;;;;;;12.45;100.00;101171.66;5054822;28;19927;-56
2023/07/26 05:08:22;;;;;;;;;;;;;;;12.42;100.00;101174.16;5061312;28;19924;-56
2023/07/26 05:10:48;;;;;;;;;;;;;;;12.40;100.00;101166.38;5063387;28;20008;-55
2023/07/26 05:13:13;;;;;;;;;;;;;;;12.63;100.00;101174.69;5057026;28;20387;-57
2023/07/26 05:15:38;;;;;;;;;;;;;;;13.36;100.00;101178.16;5060428;27;19916;-57
2023/07/26 05:18:04;;;;;;;;;;;;;;;14.10;92.77;101181.38;5059223;28;20299;-57
2023/07/26 05:20:29;;;;;;;;;;;;;;;14.48;93.56;101171.72;5057063;28;19937;-57
2023/07/26 05:22:54;;;;;;;;;;;;;;;14.70;93.09;101182.44;5051922;28;19986;-57
2023/07/26 05:25:20;;;;;;;;;;;;;;;15.18;91.89;101173.69;5059795;27;19924;-56
2023/07/26 05:27:45;;;;;;;;;;;;;;;15.78;86.57;101172.78;5057621;27;20376;-56
2023/07/26 05:30:11;;;;;;;;;;;;;;;16.18;86.15;101175.78;5034820;28;20300;-56
2023/07/26 05:32:36;;;;;;;;;;;;;;;16.56;85.70;101176.13;5054632;28;19921;-56
2023/07/26 05:35:02;;;;;;;;;;;;;;;16.98;83.13;101175.63;5053238;28;19985;-56
2023/07/26 05:37:29;;;;;;;;;;;;;;;17.16;82.49;101186.13;5056287;28;19977;-57
2023/07/26 05:39:54;;;;;;;;;;;;;;;17.20;82.76;101188.75;5055030;28;19965;-56
2023/07/26 05:42:20;;;;;;;;;;;;;;;17.12;82.54;101186.13;5063357;28;19917;-56
2023/07/26 05:44:45;;;;;;;;;;;;;;;17.43;83.26;101182.84;5053216;28;19921;-57
2023/07/26 05:47:10;;;;;;;;;;;;;;;17.88;80.39;101183.03;5056251;28;20012;-57
2023/07/26 05:49:36;;;;;;;;;;;;;;;18.27;79.79;101191.81;5063392;28;20286;-56
2023/07/26 05:52:01;;;;;;;;;;;;;;;18.30;77.15;101182.25;5061469;27;19930;-56
2023/07/26 05:54:26;;;;;;;;;;;;;;;17.89;78.79;101189.97;5058867;28;19950;-57
2023/07/26 05:56:52;;;;;;;;;;;;;;;17.65;80.47;101188.13;5062442;28;19917;-56
2023/07/26 05:59:17;;;;;;;;;;;;;;;17.16;81.29;101193.94;5060669;27;19927;-57
2023/07/26 06:01:42;;;;;;;;;;;;;;;16.89;82.21;101196.34;5058770;28;19920;-56
2023/07/26 06:04:07;;;;;;;;;;;;;;;16.67;82.89;101200.47;5062060;28;19964;-56
2023/07/26 06:06:33;;;;;;;;;;;;;;;16.29;84.38;101202.72;5056571;28;19929;-56
2023/07/26 06:08:58;;;;;;;;;;;;;;;16.09;85.64;101197.31;5063408;28;19920;-57
2023/07/26 06:11:24;;;;;;;;;;;;;;;16.02;86.78;101206.75;5057652;28;19917;-57
2023/07/26 06:13:49;;;;;;;;;;;;;;;15.94;87.02;101208.38;5052285;28;19927;-56
2023/07/26 06:16:14;;;;;;;;;;;;;;;15.79;88.85;101209.09;5057036;28;20268;-57
2023/07/26 06:18:40;;;;;;;;;;;;;;;15.71;89.75;101202.94;5061348;28;19948;-57
2023/07/26 06:21:05;;;;;;;;;;;;;;;15.66;89.95;101212.38;5057151;28;19925;-57
2023/07/26 06:23:30;;;;;;;;;;;;;;;15.61;90.13;101210.53;5045076;28;19927;-57
2023/07/26 06:25:55;;;;;;;;;;;;;;;15.57;89.24;101220.84;5046859;28;19961;-56
2023/07/26 06:28:21;;;;;;;;;;;;;;;15.51;90.62;101222.50;5062204;28;20335;-56
2023/07/26 06:30:46;;;;;;;;;;;;;;;15.41;92.67;101231.88;5064857;28;19926;-56
2023/07/26 06:33:11;;;;;;;;;;;;;;;15.35;92.44;101239.56;5062346;28;20088;-57
2023/07/26 06:35:36;;;;;;;;;;;;;;;15.28;94.48;101232.53;5061768;28;19920;-56
2023/07/26 06:38:02;;;;;;;;;;;;;;;15.21;99.55;101231.56;5061019;28;19946;-55
2023/07/26 06:40:27;;;;;;;;;;;;;;;15.11;96.71;101240.06;5065387;28;20408;-56
2023/07/26 06:42:52;;;;;;;;;;;;;;;14.95;100.00;101236.34;5061692;27;19924;-55
2023/07/26 06:45:17;;;;;;;;;;;;;;;14.87;100.00;101242.28;5062469;28;20357;-56
2023/07/26 06:47:43;;;;;;;;;;;;;;;14.78;100.00;101242.97;5040831;28;19932;-53
2023/07/26 06:50:08;;;;;;;;;;;;;;;14.65;100.00;101244.47;5063422;27;20512;-55
2023/07/26 06:52:33;;;;;;;;;;;;;;;14.55;100.00;101246.88;5055838;28;19961;-52
2023/07/26 06:54:59;;;;;;;;;;;;;;;14.46;100.00;101256.22;5055150;28;20374;-56
2023/07/26 06:57:24;;;;;;;;;;;;;;;14.40;100.00;101253.50;5056817;28;19925;-55
2023/07/26 06:59:50;;;;;;;;;;;;;;;14.36;100.00;101250.81;5053334;28;19920;-55
2023/07/26 07:02:15;;;;;;;;;;;;;;;14.35;100.00;101254.25;5055363;27;19920;-53
2023/07/26 07:04:41;;;;;;;;;;;;;;;14.35;100.00;101256.81;5055631;28;20398;-55
2023/07/26 07:07:06;;;;;;;;;;;;;;;14.37;100.00;101263.75;5054212;28;19920;-55
2023/07/26 07:09:31;;;;;;;;;;;;;;;14.34;100.00;101270.63;5064238;28;20471;-54
2023/07/26 07:11:56;;;;;;;;;;;;;;;14.31;100.00;101276.59;5054821;27;20137;-54
2023/07/26 07:14:22;;;;;;;;;;;;;;;14.26;100.00;101288.59;5053452;28;19963;-54
2023/07/26 07:16:47;;;;;;;;;;;;;;;14.21;100.00;101292.78;5057883;28;19982;-55
2023/07/26 07:19:13;;;;;;;;;;;;;;;14.16;100.00;101290.09;5054340;28;19925;-56
2023/07/26 07:21:38;;;;;;;;;;;;;;;14.11;100.00;101271.03;5059620;28;19927;-55
2023/07/26 07:24:04;;;;;;;;;;;;;;;14.01;100.00;101284.59;5059278;28;20346;-55
2023/07/26 07:26:29;;;;;;;;;;;;;;;13.92;100.00;101282.72;5065270;28;19952;-53
2023/07/26 07:28:55;;;;;;;;;;;;;;;13.91;100.00;101274.94;5065602;28;19970;-56
2023/07/26 07:31:20;;;;;;;;;;;;;;;13.95;100.00;101279.28;5068444;27;19924;-56
2023/07/26 07:33:45;;;;;;;;;;;;;;;13.99;100.00;101282.84;5068725;28;19920;-55
2023/07/26 07:36:15;;;;;;;;;;;;;;;14.06;100.00;101292.47;5067007;28;19928;-54
2023/07/26 07:38:40;;;;;;;;;;;;;;;14.11;100.00;101283.09;5063545;28;19950;-54
2023/07/26 07:41:06;;;;;;;;;;;;;;;14.12;100.00;101277.06;5068258;27;20421;-53
2023/07/26 07:43:31;;;;;;;;;;;;;;;14.20;100.00;101288.47;5064073;28;19916;-54
2023/07/26 07:45:56;;;;;;;;;;;;;;;14.24;100.00;101279.91;5061348;28;20045;-54
2023/07/26 07:48:21;;;;;;;;;;;;;;;14.29;100.00;101275.69;5062897;28;20384;-54
2023/07/26 07:50:52;;;;;;;;;;;;;;;14.35;100.00;101283.56;5064401;28;19916;-53
2023/07/26 07:53:17;;;;;;;;;;;;;;;14.46;100.00;101281.19;5065710;28;19972;-51
2023/07/26 07:55:43;;;;;;;;;;;;;;;14.65;100.00;101277.25;5058185;27;19917;-54
2023/07/26 07:58:08;;;;;;;;;;;;;;;14.79;100.00;101273.19;5061793;28;19943;-54
2023/07/26 08:00:33;;;;;;;;;;;;;;;14.91;100.00;101275.13;5063350;27;20382;-52
2023/07/26 08:02:59;;;;;;;;;;;;;;;15.10;100.00;101271.97;5065612;28;19964;-53
2023/07/26 08:05:25;;;;;;;;;;;;;;;15.51;100.00;101272.59;5066364;28;19948;-52
2023/07/26 08:07:51;;;;;;;;;;;;;;;16.02;100.00;101278.53;5068057;28;20329;-53
2023/07/26 08:10:16;;;;;;;;;;;;;;;16.34;100.00;101286.69;5067431;28;19977;-52
2023/07/26 08:12:42;;;;;;;;;;;;;;;16.72;100.00;101286.22;5069532;28;20338;-52
2023/07/26 08:15:07;;;;;;;;;;;;;;;17.11;100.00;101285.72;5064957;27;20366;-54
2023/07/26 08:17:32;;;;;;;;;;;;;;;17.37;100.00;101285.91;5065616;28;20379;-55
2023/07/26 08:19:58;;;;;;;;;;;;;;;17.46;100.00;101292.88;5067260;27;19924;-55
2023/07/26 08:22:23;;;;;;;;;;;;;;;17.75;100.00;101293.09;5065160;28;19924;-55
2023/07/26 08:24:51;;;;;;;;;;;;;;;18.10;100.00;101288.94;5065432;27;19925;-55
2023/07/26 08:27:16;;;;;;;;;;;;;;;18.41;100.00;101289.91;5064606;28;19926;-55
2023/07/26 08:29:42;;;;;;;;;;;;;;;18.69;100.00;101293.47;5065219;28;20007;-55
2023/07/26 08:32:07;;;;;;;;;;;;;;;19.03;100.00;101296.97;5065894;28;19932;-49
2023/07/26 08:34:32;;;;;;;;;;;;;;;19.24;95.71;101285.69;5066992;28;19921;-47
2023/07/26 08:36:57;;;;;;;;;;;;;;;19.28;92.90;101290.00;5066370;28;19920;-46
2023/07/26 08:39:23;;;;;;;;;;;;;;;19.19;92.00;101300.44;5066293;28;19917;-49
2023/07/26 08:41:49;;;;;;;;;;;;;;;19.27;92.40;101295.22;5062460;28;19959;-46
2023/07/26 08:44:15;;;;;;;;;;;;;;;19.51;91.58;101281.28;5066619;27;20027;-46
2023/07/26 08:46:40;;;;;;;;;;;;;;;19.68;89.90;101289.97;5064594;28;20379;-46
2023/07/26 08:49:06;;;;;;;;;;;;;;;19.81;88.83;101288.19;5063342;28;19921;-47
2023/07/26 08:51:31;;;;;;;;;;;;;;;19.99;89.06;101285.53;5061630;28;19927;-46
2023/07/26 08:53:57;;;;;;;;;;;;;;;20.16;85.66;101281.97;5061733;27;19928;-49
2023/07/26 08:56:24;;;;;;;;;;;;;;;20.27;85.30;101288.88;5065956;28;19921;-47
2023/07/26 08:58:49;;;;;;;;;;;;;;;20.36;86.98;101274.91;5067838;28;19921;-46
2023/07/26 09:01:15;;;;;;;;;;;;;;;20.43;83.89;101273.13;5087301;27;19927;-46
2023/07/26 09:03:40;;;;;;;;;;;;;;;20.41;83.48;101270.50;5068501;27;19923;-46
2023/07/26 09:06:07;;;;;;;;;;;;;;;20.30;80.84;101273.19;5066825;28;19921;-48
2023/07/26 09:08:32;;;;;;;;;;;;;;;20.35;80.08;101271.41;5048372;28;20374;-50
2023/07/26 09:10:58;;;;;;;;;;;;;;;20.39;78.41;101268.81;5066285;27;19913;-50
2023/07/26 09:13:24;;;;;;;;;;;;;;;20.46;80.16;101268.78;5066373;28;19972;-48
2023/07/26 09:15:50;;;;;;;;;;;;;;;20.52;78.57;101275.72;5066961;28;20270;-46
2023/07/26 09:18:15;;;;;;;;;;;;;;;20.52;76.11;101268.75;5067045;28;19922;-50
2023/07/26 09:20:40;;;;;;;;;;;;;;;20.48;78.51;101267.00;5067575;28;20018;-46
2023/07/26 09:23:10;;;;;;;;;;;;;;;20.34;77.39;101259.25;5065012;28;19919;-46
2023/07/26 09:25:39;;;;;;;;;;;;;;;20.34;77.13;101253.16;5060363;28;19921;-47
2023/07/26 09:28:08;;;;;;;;;;;;;;;20.55;71.54;101255.66;5062226;28;19924;-47
2023/07/26 09:30:36;;;;;;;;;;;;;;;20.78;73.23;101259.84;5062371;28;19917;-47
2023/07/26 09:33:01;;;;;;;;;;;;;;;20.72;72.18;101252.91;5063194;28;19924;-45
2023/07/26 09:35:27;;;;;;;;;;;;;;;20.51;76.96;101250.47;5065673;28;19987;-47
2023/07/26 09:37:52;;;;;;;;;;;;;;;20.19;76.56;101258.44;5061873;28;19977;-49
2023/07/26 09:40:30;;;;;;;;;;;;;;;19.73;80.07;101258.66;5066825;28;19968;-47
2023/07/26 09:42:55;;;;;;;;;;;;;;;19.15;77.41;101267.41;5060111;28;20399;-46
2023/07/26 09:45:21;;;;;;;;;;;;;;;18.59;76.97;101267.38;5066737;28;19920;-50
2023/07/26 09:47:46;;;;;;;;;;;;;;;18.14;80.17;101271.59;5063124;27;20271;-49
2023/07/26 09:50:25;;;;;;;;;;;;;;;17.81;80.29;101273.19;5064719;28;20292;-49
2023/07/26 09:52:55;;;;;;;;;;;;;;;17.50;80.64;101268.66;5061472;28;19916;-48
2023/07/26 09:55:24;;;;;;;;;;;;;;;17.34;82.81;101265.06;5058487;28;20006;-46
2023/07/26 09:57:54;;;;;;;;;;;;;;;17.29;85.33;101262.47;5058161;28;20433;-48
2023/07/26 10:00:20;;;;;;;;;;;;;;;17.21;85.55;101265.84;5058289;28;19939;-50
2023/07/26 10:02:48;;;;;;;;;;;;;;;17.18;86.82;101273.66;5063861;28;19924;-47
2023/07/26 10:05:15;;;;;;;;;;;;;;;17.24;88.37;101271.09;5060633;28;19926;-49
2023/07/26 10:07:40;;;;;;;;;;;;;;;17.38;89.83;101264.25;5066665;28;20007;-47
2023/07/26 10:10:06;;;;;;;;;;;;;;;17.52;87.42;101264.31;5065567;28;19999;-50
2023/07/26 10:12:33;;;;;;;;;;;;;;;17.62;86.37;101261.78;5065715;28;20289;-49
2023/07/26 10:14:59;;;;;;;;;;;;;;;17.67;86.91;101273.09;5062833;28;19920;-48
2023/07/26 10:17:26;;;;;;;;;;;;;;;17.73;87.90;101279.22;5065042;28;20279;-47
2023/07/26 10:19:51;;;;;;;;;;;;;;;17.72;90.40;101286.16;5068413;28;20354;-48
2023/07/26 10:22:17;;;;;;;;;;;;;;;17.61;91.57;101277.41;5043437;28;19921;-47
2023/07/26 10:24:42;;;;;;;;;;;;;;;17.43;91.67;101272.94;5063964;28;20306;-47
2023/07/26 10:27:08;;;;;;;;;;;;;;;17.27;92.00;101265.91;5058524;28;20376;-48
2023/07/26 10:29:34;;;;;;;;;;;;;;;17.07;93.23;101269.22;5059554;28;19964;-48
2023/07/26 10:32:04;;;;;;;;;;;;;;;16.93;91.51;101263.06;5062470;28;20323;-48
2023/07/26 10:34:30;;;;;;;;;;;;;;;16.89;92.41;101258.69;5058921;28;20015;-49
2023/07/26 10:36:55;;;;;;;;;;;;;;;16.96;90.77;101255.28;5046884;28;20441;-49
2023/07/26 10:39:32;;;;;;;;;;;;;;;17.06;93.25;101246.72;5062289;28;19913;-49
2023/07/26 10:41:58;;;;;;;;;;;;;;;17.34;94.32;101246.88;5046634;28;20323;-47
2023/07/26 10:44:23;;;;;;;;;;;;;;;17.62;93.64;101246.19;5058486;28;19965;-46
2023/07/26 10:46:53;;;;;;;;;;;;;;;17.88;92.72;101246.34;5071236;27;20365;-45
2023/07/26 10:49:20;;;;;;;;;;;;;;;18.07;92.15;101242.06;5058360;28;19927;-48
2023/07/26 10:51:57;;;;;;;;;;;;;;;18.28;92.10;101245.63;5045721;28;20267;-45
2023/07/26 10:54:35;;;;;;;;;;;;;;;18.46;89.29;101248.25;5063811;28;20728;-45
2023/07/26 10:57:09;;;;;;;;;;;;;;;18.80;90.02;101245.72;5064376;28;20347;-48
2023/07/26 10:59:35;;;;;;;;;;;;;;;19.16;85.89;101243.09;5062861;28;20077;-49
2023/07/26 11:02:04;;;;;;;;;;;;;;;19.45;85.03;101247.38;5048526;27;19963;-48
2023/07/26 11:04:29;;;;;;;;;;;;;;;19.63;83.40;101247.38;5067571;28;20014;-49
2023/07/26 11:06:59;;;;;;;;;;;;;;;19.71;79.17;101255.16;5066807;28;19961;-50
2023/07/26 11:09:26;;;;;;;;;;;;;;;19.71;79.93;101249.94;5067649;28;19924;-47
2023/07/26 11:12:02;;;;;;;;;;;;;;;19.66;81.13;101239.56;5064274;28;21179;-47
2023/07/26 11:14:30;;;;;;;;;;;;;;;19.70;75.19;101237.78;5066198;28;19912;-50
2023/07/26 11:16:55;;;;;;;;;;;;;;;19.91;72.36;101249.91;5075206;27;20031;-47
2023/07/26 11:19:21;;;;;;;;;;;;;;;20.18;72.59;101257.59;5068350;28;20430;-47
2023/07/26 11:21:46;;;;;;;;;;;;;;;20.32;71.63;101252.28;5065400;28;19921;-50
2023/07/26 11:24:11;;;;;;;;;;;;;;;20.42;72.96;101255.72;5066136;28;20749;-50
2023/07/26 11:26:40;;;;;;;;;;;;;;;20.43;66.77;101262.66;5062656;28;20287;-51
2023/07/26 11:29:06;;;;;;;;;;;;;;;20.32;65.33;101254.88;5060290;28;19921;-47
2023/07/26 11:31:31;;;;;;;;;;;;;;;20.16;68.59;101259.34;5073813;28;19928;-47
2023/07/26 11:33:57;;;;;;;;;;;;;;;20.10;68.27;101269.81;5059570;28;19912;-47
2023/07/26 11:36:23;;;;;;;;;;;;;;;19.96;65.87;101264.66;5058015;28;19961;-50
2023/07/26 11:38:48;;;;;;;;;;;;;;;20.03;67.01;101260.28;5066622;28;20282;-49
2023/07/26 11:41:17;;;;;;;;;;;;;;;20.42;61.68;101261.81;5064337;28;20120;-47
2023/07/26 11:43:43;;;;;;;;;;;;;;;20.67;63.58;101264.28;5068591;28;19944;-46
2023/07/26 11:46:08;;;;;;;;;;;;;;;20.81;62.72;101260.69;5065045;28;20008;-47
2023/07/26 11:48:34;;;;;;;;;;;;;;;20.79;59.18;101261.56;5068365;28;20563;-47
2023/07/26 11:51:03;;;;;;;;;;;;;;;20.77;57.94;101263.34;5065462;28;19928;-47
2023/07/26 11:53:33;;;;;;;;;;;;;;;20.61;60.12;101270.41;5066832;28;20635;-47
2023/07/26 11:56:00;;;;;;;;;;;;;;;20.46;61.62;101273.16;5066130;28;20008;-48
2023/07/26 11:58:25;;;;;;;;;;;;;;;20.32;61.98;101274.06;5062421;28;19922;-46
2023/07/26 12:00:51;;;;;;;;;;;;;;;20.25;60.03;101274.94;5061484;28;19916;-49
2023/07/26 12:03:16;;;;;;;;;;;;;;;20.30;61.99;101274.94;5064456;28;19982;-49
2023/07/26 12:05:44;;;;;;;;;;;;;;;20.41;61.76;101280.09;5048328;28;20459;-45
2023/07/26 12:08:09;;;;;;;;;;;;;;;20.55;62.18;101280.91;5068122;28;19971;-49
2023/07/26 12:10:39;;;;;;;;;;;;;;;20.80;59.74;101274.63;5064286;28;19967;-45
2023/07/26 12:13:09;;;;;;;;;;;;;;;20.98;57.47;101270.13;5059113;28;20634;-49
2023/07/26 12:15:52;;;;;;;;;;;;;;;21.04;59.25;101278.78;5063358;28;19921;-49
2023/07/26 12:18:22;;;;;;;;;;;;;;;21.04;56.21;101275.31;5063790;27;20373;-47
2023/07/26 12:20:56;;;;;;;;;;;;;;;20.91;57.41;101279.78;5063025;28;19921;-47
2023/07/26 12:23:22;;;;;;;;;;;;;;;20.77;58.82;101282.50;5060353;28;19920;-46
2023/07/26 12:25:51;;;;;;;;;;;;;;;20.68;57.41;101274.72;5059096;28;19921;-48
2023/07/26 12:28:16;;;;;;;;;;;;;;;20.63;58.72;101286.97;5056781;28;19943;-47